Time;durP1;ratioP1;P1;durP2;ratioP2;P2;SDS_P1;SDS_P2;PMS_P1;PMS_P2;Temp;Humidity;BMP_temperature;BMP_pressure;BME280_temperature;BME280_humidity;BME280_pressure;Samples;Min_cycle;Max_cycle;Signal;HPM_P1;HPM_P2
2024/03/28 00:01:24;;;;;;;5.53;4.07;;;12.50;99.90;;;;;;5011741;28;20064;-80
2024/03/28 00:03:50;;;;;;;6.70;4.53;;;12.50;99.90;;;;;;5028646;28;20693;-80
2024/03/28 00:06:15;;;;;;;5.07;3.83;;;12.50;99.90;;;;;;5029536;28;20565;-81
2024/03/28 00:08:42;;;;;;;7.57;4.00;;;12.50;99.90;;;;;;5010915;28;20063;-80
2024/03/28 00:11:08;;;;;;;6.57;4.32;;;12.50;99.90;;;;;;5025751;28;20020;-80
2024/03/28 00:13:33;;;;;;;5.95;4.28;;;12.50;99.90;;;;;;5026089;28;20030;-81
2024/03/28 00:16:02;;;;;;;6.30;4.30;;;12.50;99.90;;;;;;5022849;28;20440;-80
2024/03/28 00:18:29;;;;;;;7.75;4.65;;;12.50;99.90;;;;;;5026327;28;20100;-80
2024/03/28 00:20:58;;;;;;;6.05;4.50;;;12.50;99.90;;;;;;5029263;28;20040;-80
2024/03/28 00:23:24;;;;;;;7.40;3.90;;;12.50;99.90;;;;;;5012244;28;20033;-80
2024/03/28 00:25:54;;;;;;;8.20;4.72;;;12.50;99.90;;;;;;5010491;28;20399;-80
2024/03/28 00:28:20;;;;;;;6.00;4.03;;;12.50;99.90;;;;;;5010918;28;20040;-80
2024/03/28 00:30:47;;;;;;;5.97;3.83;;;12.50;99.90;;;;;;5029665;28;20026;-81
2024/03/28 00:33:13;;;;;;;4.57;3.90;;;12.50;99.90;;;;;;5006017;28;20109;-81
2024/03/28 00:35:46;;;;;;;6.45;4.35;;;12.50;99.90;;;;;;5028464;28;20021;-80
2024/03/28 00:38:13;;;;;;;6.75;4.70;;;12.50;99.90;;;;;;5005255;28;20045;-80
2024/03/28 00:40:53;;;;;;;6.40;4.22;;;12.50;99.90;;;;;;5029697;28;20033;-80
2024/03/28 00:43:19;;;;;;;5.07;3.93;;;12.50;99.90;;;;;;5005192;28;20025;-80
2024/03/28 00:45:45;;;;;;;7.55;3.90;;;12.40;99.90;;;;;;5008858;28;20788;-80
2024/03/28 00:48:12;;;;;;;6.68;4.55;;;12.50;99.90;;;;;;5027088;28;20085;-80
2024/03/28 00:50:38;;;;;;;4.13;3.38;;;12.50;99.90;;;;;;5031274;28;20029;-80
2024/03/28 00:53:04;;;;;;;5.63;4.07;;;12.50;99.90;;;;;;5032971;28;20017;-82
2024/03/28 00:55:30;;;;;;;6.65;3.50;;;12.50;99.90;;;;;;5011180;28;20384;-80
2024/03/28 00:57:55;;;;;;;8.43;3.55;;;12.50;99.90;;;;;;5013329;28;20028;-80
2024/03/28 01:00:22;;;;;;;5.30;4.13;;;12.50;99.90;;;;;;5032805;28;20033;-81
2024/03/28 01:02:47;;;;;;;5.38;4.03;;;12.50;99.90;;;;;;5030392;28;20360;-80
2024/03/28 01:05:14;;;;;;;4.07;3.53;;;12.50;99.90;;;;;;5010788;28;20076;-80
2024/03/28 01:07:39;;;;;;;3.67;3.28;;;12.50;99.90;;;;;;5032155;28;20034;-81
2024/03/28 01:10:06;;;;;;;6.97;3.25;;;12.50;99.90;;;;;;5012717;28;20044;-80
2024/03/28 01:12:31;;;;;;;5.30;3.35;;;12.40;99.90;;;;;;5031437;28;20060;-82
2024/03/28 01:14:57;;;;;;;5.07;3.65;;;12.50;99.90;;;;;;5031969;28;20045;-80
2024/03/28 01:17:23;;;;;;;5.57;3.95;;;12.50;99.90;;;;;;5030558;28;20058;-80
2024/03/28 01:19:49;;;;;;;5.05;3.13;;;12.40;99.90;;;;;;5011412;28;20503;-80
2024/03/28 01:22:15;;;;;;;3.60;3.20;;;12.40;99.90;;;;;;5013572;28;20029;-81
2024/03/28 01:24:40;;;;;;;4.22;3.70;;;12.50;99.90;;;;;;5015109;28;20074;-80
2024/03/28 01:27:06;;;;;;;5.55;3.90;;;12.40;99.90;;;;;;5010649;28;20076;-80
2024/03/28 01:29:31;;;;;;;4.43;3.90;;;12.40;99.90;;;;;;5014159;28;20026;-80
2024/03/28 01:31:58;;;;;;;3.88;3.40;;;12.40;99.90;;;;;;5032407;28;20544;-80
2024/03/28 01:34:27;;;;;;;5.22;3.58;;;12.40;99.90;;;;;;5026096;28;20726;-81
2024/03/28 01:36:53;;;;;;;5.95;3.95;;;12.40;99.90;;;;;;5012327;28;20044;-79
2024/03/28 01:39:19;;;;;;;4.80;3.88;;;12.40;99.90;;;;;;5009163;28;20025;-80
2024/03/28 01:41:49;;;;;;;5.72;4.15;;;12.40;99.90;;;;;;5012585;28;20040;-80
2024/03/28 01:44:15;;;;;;;4.20;3.30;;;12.40;99.90;;;;;;5029577;28;20029;-83
2024/03/28 01:46:41;;;;;;;4.85;3.88;;;12.40;99.90;;;;;;5032910;28;20029;-80
2024/03/28 01:49:08;;;;;;;5.68;3.33;;;12.40;99.90;;;;;;5028545;28;20526;-80
2024/03/28 01:51:34;;;;;;;7.28;3.97;;;12.40;99.90;;;;;;5011500;28;20116;-81
2024/03/28 01:53:59;;;;;;;7.85;4.05;;;12.40;99.90;;;;;;5013812;28;20494;-81
2024/03/28 01:56:25;;;;;;;4.75;3.50;;;12.40;99.90;;;;;;5008698;28;20562;-80
2024/03/28 01:58:51;;;;;;;4.43;3.50;;;12.40;99.90;;;;;;5028824;28;20010;-80
2024/03/28 02:01:19;;;;;;;4.82;3.42;;;12.40;99.90;;;;;;5013787;28;20026;-80
2024/03/28 02:03:45;;;;;;;4.82;3.60;;;12.40;99.90;;;;;;5014217;28;20124;-80
2024/03/28 02:06:10;;;;;;;7.47;3.65;;;12.40;99.90;;;;;;5010593;28;20100;-80
2024/03/28 02:08:36;;;;;;;4.35;3.47;;;12.40;99.90;;;;;;5011602;28;20026;-80
2024/03/28 02:11:03;;;;;;;5.00;3.70;;;12.40;99.90;;;;;;5026976;28;20033;-80
2024/03/28 02:13:28;;;;;;;3.70;3.30;;;12.40;99.90;;;;;;5027823;28;20504;-81
2024/03/28 02:15:54;;;;;;;5.22;3.75;;;12.40;99.90;;;;;;5030783;28;20060;-81
2024/03/28 02:18:21;;;;;;;4.68;3.60;;;12.40;99.90;;;;;;5027443;28;20482;-80
2024/03/28 02:20:47;;;;;;;7.72;3.50;;;12.40;99.90;;;;;;5031686;28;20054;-80
2024/03/28 02:23:13;;;;;;;5.15;3.45;;;12.40;99.90;;;;;;5029228;28;20017;-81
2024/03/28 02:25:39;;;;;;;4.82;3.47;;;12.40;99.90;;;;;;5027736;28;20537;-82
2024/03/28 02:28:04;;;;;;;7.10;3.58;;;12.40;99.90;;;;;;5013958;28;20022;-82
2024/03/28 02:30:32;;;;;;;4.63;3.78;;;12.40;99.90;;;;;;5028996;28;20075;-81
2024/03/28 02:32:58;;;;;;;5.20;3.67;;;12.40;99.90;;;;;;5030135;28;20013;-80
2024/03/28 02:35:23;;;;;;;6.18;3.50;;;12.30;99.90;;;;;;5010550;28;21675;-80
2024/03/28 02:37:49;;;;;;;4.65;3.50;;;12.30;99.90;;;;;;5012012;28;20029;-80
2024/03/28 02:40:15;;;;;;;4.43;3.47;;;12.40;99.90;;;;;;5012752;28;20045;-81
2024/03/28 02:42:40;;;;;;;4.78;3.33;;;12.40;99.90;;;;;;5011148;28;20049;-80
2024/03/28 02:45:06;;;;;;;4.03;3.05;;;12.30;99.90;;;;;;5010052;28;20033;-80
2024/03/28 02:47:31;;;;;;;4.35;2.97;;;12.30;99.90;;;;;;5011721;28;20075;-81
2024/03/28 02:49:57;;;;;;;5.35;3.45;;;12.30;99.90;;;;;;5007464;28;20645;-80
2024/03/28 02:52:22;;;;;;;4.32;3.25;;;12.30;99.90;;;;;;5029654;28;20037;-81
2024/03/28 02:54:48;;;;;;;4.72;3.30;;;12.30;99.90;;;;;;5008850;28;20036;-81
2024/03/28 02:57:22;;;;;;;5.68;3.70;;;12.30;99.90;;;;;;5030474;28;20018;-80
2024/03/28 02:59:48;;;;;;;5.78;4.18;;;12.30;99.90;;;;;;5011740;28;20026;-82
2024/03/28 03:02:13;;;;;;;6.07;3.78;;;12.30;99.90;;;;;;5012354;28;20018;-80
2024/03/28 03:04:39;;;;;;;4.25;3.35;;;12.30;99.90;;;;;;5007747;28;20018;-80
2024/03/28 03:07:04;;;;;;;4.90;3.53;;;12.30;99.90;;;;;;5011990;28;20021;-81
2024/03/28 03:09:30;;;;;;;4.80;3.47;;;12.30;99.90;;;;;;5007955;28;20483;-81
2024/03/28 03:11:56;;;;;;;5.65;3.30;;;12.30;99.90;;;;;;5032845;28;20083;-80
2024/03/28 03:14:22;;;;;;;4.88;3.53;;;12.30;99.90;;;;;;5013105;28;20021;-80
2024/03/28 03:16:48;;;;;;;4.10;3.45;;;12.30;99.90;;;;;;5009162;28;20376;-80
2024/03/28 03:19:16;;;;;;;5.72;4.00;;;12.30;99.90;;;;;;5007678;28;20552;-80
2024/03/28 03:21:43;;;;;;;5.22;3.67;;;12.30;99.90;;;;;;5030883;28;20021;-80
2024/03/28 03:24:12;;;;;;;5.28;3.53;;;12.30;99.90;;;;;;5008779;28;20113;-81
2024/03/28 03:26:38;;;;;;;7.70;3.95;;;12.30;99.90;;;;;;5012338;28;20480;-79
2024/03/28 03:34:37;;;;;;;6.40;3.85;;;12.30;99.90;;;;;;5029765;28;20029;-80
2024/03/28 03:37:07;;;;;;;6.22;3.83;;;12.30;99.90;;;;;;5010269;28;20506;-80
2024/03/28 03:39:33;;;;;;;4.63;3.38;;;12.30;99.90;;;;;;5008251;28;20400;-80
2024/03/28 03:41:58;;;;;;;4.55;3.78;;;12.30;99.90;;;;;;5008389;28;20021;-80
2024/03/28 03:44:24;;;;;;;5.80;3.53;;;12.30;99.90;;;;;;5008613;28;20029;-80
2024/03/28 03:46:49;;;;;;;6.65;4.18;;;12.30;99.90;;;;;;5010048;28;20498;-81
2024/03/28 03:49:16;;;;;;;5.43;3.85;;;12.20;99.90;;;;;;5011926;28;20029;-81
2024/03/28 03:51:42;;;;;;;5.55;4.18;;;12.20;99.90;;;;;;5009497;28;20411;-80
2024/03/28 03:54:11;;;;;;;5.43;3.85;;;12.30;99.90;;;;;;5028156;28;20022;-80
2024/03/28 03:56:36;;;;;;;6.93;3.97;;;12.30;99.90;;;;;;5007166;28;20104;-80
2024/03/28 03:59:02;;;;;;;6.65;4.00;;;12.30;99.90;;;;;;5006474;28;20163;-80
2024/03/28 04:01:28;;;;;;;7.05;4.45;;;12.20;99.90;;;;;;5000440;28;20034;-79
2024/03/28 04:03:53;;;;;;;6.35;3.88;;;12.20;99.90;;;;;;5008323;28;20024;-79
2024/03/28 04:06:19;;;;;;;5.55;3.92;;;12.20;99.90;;;;;;5029621;28;20040;-80
2024/03/28 04:08:45;;;;;;;4.70;3.67;;;12.20;99.90;;;;;;5011938;28;20022;-80
2024/03/28 04:11:11;;;;;;;7.43;4.93;;;12.20;99.90;;;;;;5027151;28;20066;-81
2024/03/28 04:13:36;;;;;;;5.47;3.92;;;12.20;99.90;;;;;;5029269;28;20018;-80
2024/03/28 04:16:02;;;;;;;7.88;4.95;;;12.20;99.90;;;;;;5012023;28;20013;-80
2024/03/28 04:18:28;;;;;;;6.78;4.05;;;12.20;99.90;;;;;;5028396;28;20032;-80
2024/03/28 04:20:53;;;;;;;8.73;4.57;;;12.20;99.90;;;;;;5029269;28;20024;-80
2024/03/28 04:23:19;;;;;;;6.57;4.32;;;12.20;99.90;;;;;;5011607;28;20108;-80
2024/03/28 04:25:53;;;;;;;6.30;4.05;;;12.20;99.90;;;;;;5009702;28;20037;-80
2024/03/28 04:28:19;;;;;;;7.95;4.28;;;12.20;99.90;;;;;;5027734;28;20026;-80
2024/03/28 04:30:44;;;;;;;8.95;4.38;;;12.20;99.90;;;;;;5011810;28;20076;-80
2024/03/28 04:33:10;;;;;;;8.00;4.82;;;12.20;99.90;;;;;;5012007;28;20112;-80
2024/03/28 04:35:35;;;;;;;6.65;4.57;;;12.20;99.90;;;;;;5009859;28;20504;-80
2024/03/28 04:38:01;;;;;;;6.10;4.25;;;12.20;99.90;;;;;;5023923;28;20029;-80
2024/03/28 04:40:26;;;;;;;6.25;4.30;;;12.20;99.90;;;;;;5010191;28;20036;-81
2024/03/28 04:42:52;;;;;;;10.02;5.05;;;12.20;99.90;;;;;;5029449;28;20021;-81
2024/03/28 04:45:20;;;;;;;8.05;5.00;;;12.20;99.90;;;;;;5028783;28;20393;-80
2024/03/28 04:47:47;;;;;;;6.28;4.05;;;12.20;99.90;;;;;;5029340;28;20021;-80
2024/03/28 04:50:17;;;;;;;7.93;4.95;;;12.20;99.90;;;;;;5007021;28;20496;-79
2024/03/28 04:52:43;;;;;;;7.25;4.68;;;12.20;99.90;;;;;;5004393;28;20018;-80
2024/03/28 04:55:08;;;;;;;9.43;5.43;;;12.20;99.90;;;;;;5011478;28;20096;-80
2024/03/28 04:57:34;;;;;;;6.53;4.43;;;12.20;99.90;;;;;;5027571;28;20013;-81
2024/03/28 05:00:00;;;;;;;7.70;4.43;;;12.20;99.90;;;;;;5002990;28;20030;-82
2024/03/28 05:02:26;;;;;;;8.50;4.78;;;12.20;99.90;;;;;;5029439;28;20025;-80
2024/03/28 05:04:52;;;;;;;7.03;4.60;;;12.20;99.90;;;;;;5028233;28;20037;-80
2024/03/28 05:07:17;;;;;;;8.45;4.93;;;12.10;99.90;;;;;;5006342;28;20115;-80
2024/03/28 05:09:46;;;;;;;6.43;3.45;;;12.10;99.90;;;;;;5011396;28;20017;-81
2024/03/28 05:12:13;;;;;;;6.10;3.95;;;12.40;99.90;;;;;;5010765;28;20542;-81
2024/03/28 05:14:38;;;;;;;8.95;4.30;;;12.30;99.90;;;;;;5010462;28;20021;-81
2024/03/28 05:17:05;;;;;;;9.07;4.88;;;12.20;99.90;;;;;;5011412;28;20021;-81
2024/03/28 05:19:31;;;;;;;7.22;4.38;;;12.20;99.90;;;;;;5028481;28;20017;-81
2024/03/28 05:21:56;;;;;;;6.10;4.10;;;12.20;99.90;;;;;;5006268;28;20043;-81
2024/03/28 05:24:22;;;;;;;6.00;4.05;;;12.20;99.90;;;;;;5028717;28;20514;-82
2024/03/28 05:26:48;;;;;;;7.03;4.45;;;12.20;99.90;;;;;;5027135;28;20026;-82
2024/03/28 05:29:14;;;;;;;10.68;4.57;;;12.20;99.90;;;;;;5007932;28;20033;-82
2024/03/28 05:31:39;;;;;;;6.25;4.18;;;12.20;99.90;;;;;;5011745;28;20553;-82
2024/03/28 05:34:05;;;;;;;6.28;4.20;;;12.10;99.90;;;;;;5015332;28;20013;-82
2024/03/28 05:36:30;;;;;;;10.52;4.55;;;12.10;99.90;;;;;;5012629;28;20026;-82
2024/03/28 05:38:56;;;;;;;7.80;4.53;;;12.10;99.90;;;;;;5012075;28;20079;-81
2024/03/28 05:41:21;;;;;;;10.68;5.15;;;12.10;99.90;;;;;;5012346;28;20111;-81
2024/03/28 05:43:47;;;;;;;7.78;5.07;;;12.10;99.90;;;;;;5026108;28;20662;-82
2024/03/28 05:46:12;;;;;;;7.40;4.72;;;12.10;99.90;;;;;;5006680;28;20026;-82
2024/03/28 05:48:38;;;;;;;8.00;4.53;;;12.10;99.90;;;;;;5013677;28;20025;-81
2024/03/28 05:51:04;;;;;;;7.85;4.22;;;12.10;99.90;;;;;;5032490;28;20109;-81
2024/03/28 05:53:29;;;;;;;8.50;5.30;;;12.10;99.90;;;;;;5011452;28;20113;-81
2024/03/28 05:55:55;;;;;;;7.05;4.70;;;12.10;99.90;;;;;;5013925;28;20017;-82
2024/03/28 05:58:20;;;;;;;10.13;5.03;;;12.10;99.90;;;;;;5014255;28;20029;-79
2024/03/28 06:00:46;;;;;;;11.38;5.68;;;12.10;99.90;;;;;;5031371;28;20037;-79
2024/03/28 06:03:12;;;;;;;8.05;5.22;;;12.10;99.90;;;;;;5032132;28;20017;-79
2024/03/28 06:05:37;;;;;;;8.95;4.85;;;12.10;99.90;;;;;;5031346;28;20021;-79
2024/03/28 06:08:03;;;;;;;8.20;5.13;;;12.10;99.90;;;;;;5013302;28;20029;-79
2024/03/28 06:10:29;;;;;;;7.18;4.97;;;12.10;99.90;;;;;;5027438;28;20112;-81
2024/03/28 06:12:54;;;;;;;8.40;5.18;;;12.10;99.90;;;;;;5003321;28;20088;-79
2024/03/28 06:15:20;;;;;;;9.23;5.63;;;12.10;99.90;;;;;;5031084;28;20037;-79
2024/03/28 06:17:45;;;;;;;7.60;5.20;;;12.10;99.90;;;;;;5010349;28;20056;-80
2024/03/28 06:20:11;;;;;;;11.10;6.30;;;12.10;99.90;;;;;;5013711;28;20598;-79
2024/03/28 06:22:38;;;;;;;10.23;5.00;;;12.10;99.90;;;;;;5010912;28;20510;-79
2024/03/28 06:25:05;;;;;;;9.60;5.45;;;12.10;99.90;;;;;;5004632;28;20037;-79
2024/03/28 06:27:31;;;;;;;9.80;5.40;;;12.10;99.90;;;;;;5011115;28;20025;-80
2024/03/28 06:29:56;;;;;;;10.90;5.63;;;12.10;99.90;;;;;;5031415;28;20025;-79
2024/03/28 06:32:25;;;;;;;11.55;5.93;;;12.10;99.90;;;;;;5030994;28;20037;-80
2024/03/28 06:34:57;;;;;;;10.70;5.90;;;12.00;99.90;;;;;;5010967;28;20380;-79
2024/03/28 06:37:23;;;;;;;11.80;6.55;;;12.10;99.90;;;;;;5031329;28;20029;-80
2024/03/28 06:39:49;;;;;;;11.30;5.53;;;12.10;99.90;;;;;;5030955;28;20052;-79
2024/03/28 06:42:15;;;;;;;10.77;6.20;;;12.10;99.90;;;;;;5031056;28;20060;-79
2024/03/28 06:44:45;;;;;;;12.73;6.60;;;12.20;99.90;;;;;;5013470;28;20026;-80
2024/03/28 06:47:11;;;;;;;9.17;5.90;;;12.20;99.90;;;;;;5009786;28;20025;-79
2024/03/28 06:49:36;;;;;;;14.13;7.43;;;12.20;99.90;;;;;;5011976;28;20107;-78
2024/03/28 06:52:02;;;;;;;17.13;7.65;;;12.20;99.90;;;;;;5013088;28;20025;-79
2024/03/28 06:54:27;;;;;;;15.70;7.53;;;12.20;99.90;;;;;;5013485;28;20017;-78
2024/03/28 06:56:53;;;;;;;16.10;7.55;;;12.20;99.90;;;;;;5012976;28;20052;-78
2024/03/28 06:59:19;;;;;;;18.10;7.78;;;12.20;99.90;;;;;;5011698;28;20471;-79
2024/03/28 07:01:44;;;;;;;14.15;7.70;;;12.20;99.90;;;;;;5011932;28;20032;-79
2024/03/28 07:04:10;;;;;;;13.43;7.22;;;12.10;99.90;;;;;;5012995;28;20022;-78
2024/03/28 07:06:36;;;;;;;12.55;6.82;;;12.20;99.90;;;;;;5030659;28;20025;-81
2024/03/28 07:09:03;;;;;;;13.50;7.15;;;12.20;99.90;;;;;;5010281;28;20053;-79
2024/03/28 07:11:29;;;;;;;11.68;7.18;;;12.20;99.90;;;;;;5030039;28;20601;-78
2024/03/28 07:13:54;;;;;;;13.45;7.47;;;12.20;99.90;;;;;;5012342;28;20476;-78
2024/03/28 07:16:20;;;;;;;11.20;6.70;;;12.20;99.90;;;;;;5028950;28;20036;-78
2024/03/28 07:18:46;;;;;;;13.90;7.82;;;12.20;99.90;;;;;;5029554;28;20029;-78
2024/03/28 07:21:12;;;;;;;12.68;6.95;;;12.20;99.90;;;;;;5030968;28;20021;-80
2024/03/28 07:23:43;;;;;;;11.57;6.82;;;12.20;99.90;;;;;;5030667;28;20096;-79
2024/03/28 07:26:09;;;;;;;12.15;7.28;;;12.20;99.90;;;;;;5027352;28;20080;-78
2024/03/28 07:28:34;;;;;;;13.27;6.53;;;12.20;99.90;;;;;;5012469;28;20021;-79
2024/03/28 07:31:00;;;;;;;11.02;6.00;;;12.20;99.90;;;;;;5011054;28;20105;-79
2024/03/28 07:33:26;;;;;;;10.65;6.53;;;12.10;99.90;;;;;;5013012;28;20036;-79
2024/03/28 07:35:51;;;;;;;12.27;6.25;;;12.10;99.90;;;;;;5012509;28;20014;-79
2024/03/28 07:38:17;;;;;;;12.88;6.57;;;12.10;99.90;;;;;;5029891;28;20017;-79
2024/03/28 07:40:51;;;;;;;9.82;5.45;;;12.10;99.90;;;;;;5010781;28;20483;-77
2024/03/28 07:43:17;;;;;;;10.98;6.15;;;12.10;99.90;;;;;;5030288;28;20022;-78
2024/03/28 07:45:45;;;;;;;10.77;6.05;;;12.10;99.90;;;;;;5030051;28;20068;-79
2024/03/28 07:48:12;;;;;;;9.40;6.22;;;12.10;99.90;;;;;;5011110;28;20564;-79
2024/03/28 07:50:37;;;;;;;11.95;6.30;;;12.10;99.90;;;;;;5009086;28;20025;-79
2024/03/28 07:53:03;;;;;;;10.15;6.13;;;12.10;99.90;;;;;;5012856;28;20017;-79
2024/03/28 07:55:29;;;;;;;18.58;6.35;;;12.10;99.90;;;;;;5011972;28;20028;-79
2024/03/28 07:57:55;;;;;;;11.43;6.28;;;12.00;99.90;;;;;;5005113;28;20613;-79
2024/03/28 08:00:23;;;;;;;11.05;5.88;;;12.10;99.90;;;;;;5026400;28;20051;-79
2024/03/28 08:02:49;;;;;;;7.93;5.20;;;12.10;99.90;;;;;;5009720;28;20505;-79
2024/03/28 08:05:17;;;;;;;9.95;5.85;;;12.10;99.90;;;;;;5011752;28;20403;-79
2024/03/28 08:07:46;;;;;;;10.00;5.80;;;12.10;99.90;;;;;;5011881;28;20022;-79
2024/03/28 08:10:12;;;;;;;9.43;6.00;;;12.00;99.90;;;;;;5027879;28;20026;-79
2024/03/28 08:12:37;;;;;;;9.35;6.03;;;12.10;99.90;;;;;;5008924;28;20028;-79
2024/03/28 08:15:06;;;;;;;8.32;5.38;;;12.10;99.90;;;;;;5003637;28;20448;-81
2024/03/28 08:17:33;;;;;;;11.75;6.50;;;12.10;99.90;;;;;;5022545;28;20026;-79
2024/03/28 08:20:00;;;;;;;9.93;6.10;;;12.10;99.90;;;;;;5004282;28;20061;-78
2024/03/28 08:22:26;;;;;;;10.10;5.63;;;12.10;99.90;;;;;;5007964;28;20025;-78
2024/03/28 08:24:52;;;;;;;11.23;5.50;;;12.10;99.90;;;;;;5011902;28;20545;-81
2024/03/28 08:27:17;;;;;;;10.00;5.82;;;12.10;99.90;;;;;;5027861;28;20037;-78
2024/03/28 08:29:44;;;;;;;9.85;5.72;;;12.10;99.90;;;;;;5029188;28;20025;-79
2024/03/28 08:32:10;;;;;;;10.98;6.22;;;12.10;99.90;;;;;;5011968;28;20075;-79
2024/03/28 08:34:36;;;;;;;10.48;5.80;;;12.10;99.90;;;;;;5011966;28;20025;-79
2024/03/28 08:37:02;;;;;;;9.27;5.53;;;12.10;99.90;;;;;;5027640;28;20024;-79
2024/03/28 08:39:28;;;;;;;10.07;6.40;;;12.10;99.90;;;;;;5011590;28;20055;-80
2024/03/28 08:41:53;;;;;;;9.60;6.22;;;12.10;99.90;;;;;;5009298;28;20499;-79
2024/03/28 08:44:19;;;;;;;10.25;5.85;;;12.10;99.90;;;;;;5011241;28;20120;-78
2024/03/28 08:46:45;;;;;;;11.23;6.22;;;12.10;99.90;;;;;;5011572;28;20028;-79
2024/03/28 08:49:11;;;;;;;10.50;6.00;;;12.10;99.90;;;;;;5011342;28;20403;-78
2024/03/28 08:51:37;;;;;;;9.60;5.93;;;12.10;99.90;;;;;;5008022;28;20439;-79
2024/03/28 08:54:05;;;;;;;12.15;6.50;;;12.10;99.90;;;;;;5010981;28;20014;-79
2024/03/28 08:56:35;;;;;;;11.50;6.45;;;12.10;99.90;;;;;;5027795;28;20052;-79
2024/03/28 08:59:03;;;;;;;10.45;6.43;;;12.10;99.90;;;;;;5023533;28;20116;-79
2024/03/28 09:01:29;;;;;;;10.18;5.50;;;12.10;99.90;;;;;;5028374;28;20514;-79
2024/03/28 09:03:55;;;;;;;12.85;6.80;;;12.10;99.90;;;;;;5029237;28;20092;-79
2024/03/28 09:06:21;;;;;;;12.50;6.90;;;12.00;99.90;;;;;;5029226;28;20060;-79
2024/03/28 09:08:47;;;;;;;11.70;6.45;;;12.10;99.90;;;;;;5032904;28;20025;-79
2024/03/28 09:11:13;;;;;;;11.02;6.55;;;12.00;99.90;;;;;;5014407;28;20021;-79
2024/03/28 09:13:41;;;;;;;11.52;6.35;;;12.10;99.90;;;;;;5013981;28;20025;-79
2024/03/28 09:16:07;;;;;;;11.38;6.60;;;12.10;99.90;;;;;;5011893;28;20017;-80
2024/03/28 09:18:34;;;;;;;10.35;5.88;;;12.00;99.90;;;;;;5009068;28;20164;-79
2024/03/28 09:21:00;;;;;;;12.15;6.90;;;12.00;99.90;;;;;;5013349;28;20022;-79
2024/03/28 09:23:26;;;;;;;9.10;5.85;;;12.00;99.90;;;;;;5013727;28;20116;-79
2024/03/28 09:25:52;;;;;;;11.25;6.32;;;12.00;99.90;;;;;;5031437;28;20163;-80
2024/03/28 09:28:18;;;;;;;10.27;5.60;;;12.00;99.90;;;;;;5032252;28;20014;-79
2024/03/28 09:30:44;;;;;;;11.05;5.38;;;12.00;99.90;;;;;;5015167;28;20025;-79
2024/03/28 09:33:10;;;;;;;8.20;5.22;;;12.00;99.90;;;;;;5014115;28;20024;-79
2024/03/28 09:35:36;;;;;;;7.65;4.78;;;12.00;99.90;;;;;;5032281;28;20021;-78
2024/03/28 09:38:02;;;;;;;7.50;4.57;;;12.00;99.90;;;;;;5011570;28;20487;-79
2024/03/28 09:40:30;;;;;;;6.88;4.13;;;12.00;99.90;;;;;;5013475;28;20041;-79
2024/03/28 09:42:56;;;;;;;5.65;3.40;;;12.00;99.90;;;;;;5009034;28;20030;-79
2024/03/28 09:45:27;;;;;;;5.88;3.30;;;11.90;99.90;;;;;;5031405;28;20094;-79
2024/03/28 09:47:54;;;;;;;;;;;11.90;99.90;;;;;;5015162;28;20025;-79
2024/03/28 09:50:20;;;;;;;4.25;2.63;;;11.90;99.90;;;;;;5030880;28;19971;-78
2024/03/28 09:52:49;;;;;;;4.40;3.03;;;11.90;99.90;;;;;;5014085;28;20435;-78
2024/03/28 09:55:16;;;;;;;3.58;2.35;;;11.90;99.90;;;;;;5014179;28;20041;-79
2024/03/28 09:57:46;;;;;;;3.03;2.13;;;11.90;99.90;;;;;;5027619;28;20025;-80
2024/03/28 10:00:32;;;;;;;4.53;2.45;;;11.90;99.90;;;;;;5016551;28;20052;-79
2024/03/28 10:03:23;;;;;;;2.92;1.85;;;11.90;99.90;;;;;;5031937;28;20602;-79
2024/03/28 10:05:49;;;;;;;1.90;1.60;;;11.90;99.90;;;;;;5024291;28;20039;-79
2024/03/28 10:08:15;;;;;;;2.55;2.00;;;11.90;99.90;;;;;;5009495;28;20022;-80
2024/03/28 10:10:42;;;;;;;2.30;1.30;;;11.90;99.90;;;;;;5005403;28;20080;-79
2024/03/28 10:13:10;;;;;;;2.08;1.13;;;11.90;99.90;;;;;;5006124;28;20029;-78
2024/03/28 10:15:36;;;;;;;6.80;1.50;;;11.90;99.90;;;;;;5010885;28;20036;-79
2024/03/28 10:18:05;;;;;;;1.35;1.20;;;11.90;99.90;;;;;;5029631;28;20022;-79
2024/03/28 10:20:32;;;;;;;1.33;0.90;;;11.90;99.90;;;;;;5014097;28;20029;-79
2024/03/28 10:22:58;;;;;;;1.45;1.30;;;11.90;99.90;;;;;;5031633;28;20104;-79
2024/03/28 10:25:24;;;;;;;1.48;0.90;;;11.90;99.90;;;;;;5031246;28;20105;-79
2024/03/28 10:27:50;;;;;;;2.05;1.15;;;11.90;99.90;;;;;;5029443;28;20021;-79
2024/03/28 10:30:24;;;;;;;1.90;1.20;;;11.90;99.90;;;;;;5029022;28;20037;-80
2024/03/28 10:32:59;;;;;;;2.20;1.45;;;11.90;99.90;;;;;;5030792;28;20039;-80
2024/03/28 10:35:25;;;;;;;3.20;1.20;;;11.90;99.90;;;;;;5011490;28;20017;-78
2024/03/28 10:38:04;;;;;;;1.63;1.50;;;11.90;99.90;;;;;;5030591;28;20017;-79
2024/03/28 10:40:32;;;;;;;2.15;1.02;;;12.20;99.90;;;;;;5011790;28;20036;-79
2024/03/28 10:43:00;;;;;;;1.17;1.05;;;12.00;99.90;;;;;;5009716;28;20083;-79
2024/03/28 10:45:32;;;;;;;1.00;0.93;;;11.90;99.90;;;;;;5013255;28;20077;-79
2024/03/28 10:47:59;;;;;;;1.02;0.88;;;12.10;99.90;;;;;;5010349;28;20064;-79
2024/03/28 10:50:32;;;;;;;2.00;1.08;;;12.10;99.90;;;;;;5008575;28;20459;-80
2024/03/28 10:53:07;;;;;;;1.02;0.88;;;12.00;99.90;;;;;;5023793;28;20044;-79
2024/03/28 10:55:37;;;;;;;0.93;0.90;;;11.90;99.90;;;;;;5025604;28;20022;-80
2024/03/28 10:58:07;;;;;;;1.23;1.05;;;11.90;99.90;;;;;;5002759;28;20140;-80
2024/03/28 11:00:33;;;;;;;1.20;1.10;;;11.90;99.90;;;;;;5004433;28;20031;-80
2024/03/28 11:02:59;;;;;;;4.25;0.88;;;11.90;99.90;;;;;;5012074;28;20029;-79
2024/03/28 11:05:29;;;;;;;1.10;1.00;;;11.80;99.90;;;;;;5022766;28;20030;-79
2024/03/28 11:07:55;;;;;;;1.58;1.23;;;11.90;99.90;;;;;;5006520;28;20463;-79
2024/03/28 11:10:22;;;;;;;1.65;1.00;;;11.80;99.90;;;;;;5026422;28;20029;-79
2024/03/28 11:12:51;;;;;;;1.45;1.00;;;11.80;99.90;;;;;;5004830;28;20653;-80
2024/03/28 11:15:22;;;;;;;0.70;0.70;;;11.80;99.90;;;;;;5032705;28;20108;-79
2024/03/28 11:17:47;;;;;;;;;;;11.80;99.90;;;;;;5011219;28;20024;-79
2024/03/28 11:20:20;;;;;;;1.35;1.08;;;11.80;99.90;;;;;;5030067;28;19909;-79
2024/03/28 11:22:46;;;;;;;1.00;0.90;;;11.80;99.90;;;;;;5007237;28;20036;-79
2024/03/28 11:25:28;;;;;;;1.00;0.80;;;11.80;99.90;;;;;;5012989;28;20091;-79
2024/03/28 11:28:06;;;;;;;0.90;0.80;;;11.70;99.90;;;;;;5029926;28;20021;-78
2024/03/28 11:30:35;;;;;;;2.13;1.02;;;11.80;99.90;;;;;;5028524;28;20056;-79
2024/03/28 11:33:06;;;;;;;1.30;0.90;;;11.80;99.90;;;;;;5030535;28;20029;-79
2024/03/28 11:35:32;;;;;;;1.35;1.05;;;11.80;99.90;;;;;;5029688;28;20018;-80
2024/03/28 11:38:08;;;;;;;0.88;0.88;;;11.80;99.90;;;;;;5010459;28;20025;-79
2024/03/28 11:40:35;;;;;;;3.05;1.00;;;11.80;99.90;;;;;;5030470;28;20029;-79
2024/03/28 11:43:15;;;;;;;2.13;1.05;;;11.80;99.90;;;;;;5008980;28;20049;-79
2024/03/28 11:46:01;;;;;;;1.33;1.17;;;11.80;99.90;;;;;;5009466;28;20033;-79
2024/03/28 11:48:33;;;;;;;1.27;1.10;;;11.70;99.90;;;;;;5009762;28;20636;-79
2024/03/28 11:51:03;;;;;;;1.00;1.00;;;11.70;99.90;;;;;;5006131;28;20033;-79
2024/03/28 11:53:29;;;;;;;1.23;1.13;;;11.70;99.90;;;;;;5019391;28;20025;-81
2024/03/28 11:55:54;;;;;;;2.03;1.30;;;11.70;99.90;;;;;;5028192;28;20138;-79
2024/03/28 11:58:24;;;;;;;1.40;1.20;;;11.70;99.90;;;;;;5008627;28;20075;-79
2024/03/28 12:00:56;;;;;;;1.50;1.17;;;11.70;99.90;;;;;;5026441;28;20332;-79
2024/03/28 12:03:22;;;;;;;1.90;1.30;;;11.80;99.90;;;;;;5031221;28;20025;-79
2024/03/28 12:05:49;;;;;;;1.35;1.02;;;11.80;99.90;;;;;;5009101;28;20022;-79
2024/03/28 12:08:15;;;;;;;3.80;1.40;;;11.90;99.90;;;;;;5011739;28;20018;-79
2024/03/28 12:10:41;;;;;;;3.30;1.15;;;11.90;99.90;;;;;;5027188;28;20025;-79
2024/03/28 12:13:07;;;;;;;2.15;1.50;;;11.90;99.90;;;;;;5029563;28;20099;-79
2024/03/28 12:15:33;;;;;;;1.63;1.30;;;11.90;99.90;;;;;;5012052;28;20104;-80
2024/03/28 12:17:59;;;;;;;1.85;1.10;;;11.90;99.90;;;;;;5012143;28;20101;-80
2024/03/28 12:20:25;;;;;;;2.83;1.42;;;11.90;99.90;;;;;;5010189;28;20083;-80
2024/03/28 12:22:55;;;;;;;1.75;1.30;;;11.90;99.90;;;;;;5011414;28;20062;-79
2024/03/28 12:25:21;;;;;;;1.70;1.30;;;11.90;99.90;;;;;;5010635;28;20057;-80
2024/03/28 12:28:04;;;;;;;4.10;1.40;;;11.80;99.90;;;;;;5026931;28;20057;-79
2024/03/28 12:30:30;;;;;;;1.23;1.13;;;11.80;99.90;;;;;;5008929;28;20025;-79
2024/03/28 12:33:04;;;;;;;1.48;1.10;;;11.80;99.90;;;;;;5005847;28;20029;-79
2024/03/28 12:35:34;;;;;;;2.13;1.30;;;11.70;99.90;;;;;;5004344;28;20025;-79
2024/03/28 12:38:01;;;;;;;;;;;11.70;99.90;;;;;;5026220;28;20277;-79
2024/03/28 12:40:27;;;;;;;1.83;1.23;;;11.80;99.90;;;;;;5025732;28;19987;-79
2024/03/28 12:42:54;;;;;;;1.08;0.90;;;11.80;99.90;;;;;;5024044;28;20017;-80
2024/03/28 12:45:21;;;;;;;1.17;1.08;;;11.80;99.90;;;;;;5007975;28;20079;-79
2024/03/28 12:47:48;;;;;;;1.50;1.40;;;11.80;99.90;;;;;;5007686;28;20052;-80
2024/03/28 12:50:19;;;;;;;2.17;1.17;;;11.70;99.90;;;;;;5023178;28;20523;-78